Aviation Digital Data Service (ADDS)

Output produced by METARs form (1111 UTC 24 January 2017)
found at http://www.aviationweather.gov/adds/metars/
 
KWWD 241056Z AUTO 33009G15KT 300V010 10SM OVC011 04/03 A2932 RMK AO2 SLP930 T00390028 $